Time;durP1;ratioP1;P1;durP2;ratioP2;P2;SDS_P1;SDS_P2;PMS_P1;PMS_P2;Temp;Humidity;BMP_temperature;BMP_pressure;BME280_temperature;BME280_humidity;BME280_pressure;Samples;Min_cycle;Max_cycle;Signal;HPM_P1;HPM_P2
2024/01/24 00:01:55;;;;;;;15.13;3.20;;;;;;;;;;4980419;28;20448;-66
2024/01/24 00:04:22;;;;;;;21.83;4.10;;;;;;;;;;4980213;28;20030;-66
2024/01/24 00:06:48;;;;;;;17.60;3.78;;;;;;;;;;4978424;28;20152;-66
2024/01/24 00:09:14;;;;;;;15.50;3.40;;;;;;;;;;4979702;28;20038;-66
2024/01/24 00:11:40;;;;;;;14.45;3.70;;;;;;;;;;4978931;28;20031;-67
2024/01/24 00:14:06;;;;;;;18.88;3.05;;;;;;;;;;4979053;28;20044;-66
2024/01/24 00:16:32;;;;;;;20.65;3.70;;;;;;;;;;4962434;28;20084;-66
2024/01/24 00:18:58;;;;;;;17.52;3.47;;;;;;;;;;4979309;28;20045;-66
2024/01/24 00:21:25;;;;;;;17.60;3.40;;;;;;;;;;4977041;28;20684;-66
2024/01/24 00:23:51;;;;;;;19.67;3.95;;;;;;;;;;4977323;28;20023;-66
2024/01/24 00:26:17;;;;;;;22.48;4.10;;;;;;;;;;4977435;28;20446;-66
2024/01/24 00:28:43;;;;;;;18.45;3.05;;;;;;;;;;4978163;28;20041;-65
2024/01/24 00:31:09;;;;;;;17.08;3.20;;;;;;;;;;4977945;28;20569;-66
2024/01/24 00:33:36;;;;;;;20.25;4.30;;;;;;;;;;4978558;28;20034;-66
2024/01/24 00:36:02;;;;;;;26.48;4.95;;;;;;;;;;4979189;28;20065;-66
2024/01/24 00:38:28;;;;;;;26.15;4.60;;;;;;;;;;4978225;28;20033;-66
2024/01/24 00:40:54;;;;;;;23.02;4.22;;;;;;;;;;4978209;28;20036;-66
2024/01/24 00:43:21;;;;;;;21.52;3.60;;;;;;;;;;4977747;28;20030;-66
2024/01/24 00:45:47;;;;;;;19.75;3.65;;;;;;;;;;4977997;28;20034;-66
2024/01/24 00:48:13;;;;;;;16.75;3.90;;;;;;;;;;4977248;28;20405;-66
2024/01/24 00:50:39;;;;;;;20.58;4.22;;;;;;;;;;4977533;28;20891;-66
2024/01/24 00:53:06;;;;;;;18.23;3.67;;;;;;;;;;4977146;28;20611;-66
2024/01/24 00:55:32;;;;;;;18.95;3.42;;;;;;;;;;4978333;28;20026;-66
2024/01/24 00:57:58;;;;;;;20.83;3.95;;;;;;;;;;4978510;28;20026;-66
2024/01/24 01:00:25;;;;;;;18.52;4.10;;;;;;;;;;4977415;28;20034;-66
2024/01/24 01:02:51;;;;;;;22.33;4.45;;;;;;;;;;4977471;28;20034;-66
2024/01/24 01:05:17;;;;;;;21.50;3.72;;;;;;;;;;4977088;28;20080;-66
2024/01/24 01:07:43;;;;;;;22.42;4.30;;;;;;;;;;4979152;28;20162;-66
2024/01/24 01:10:10;;;;;;;26.17;4.25;;;;;;;;;;4976719;28;20458;-66
2024/01/24 01:12:36;;;;;;;22.30;4.55;;;;;;;;;;4978822;28;20077;-66
2024/01/24 01:15:03;;;;;;;21.77;3.88;;;;;;;;;;4977954;28;20663;-66
2024/01/24 01:17:29;;;;;;;19.10;3.88;;;;;;;;;;4977732;28;20486;-66
2024/01/24 01:19:55;;;;;;;16.90;3.20;;;;;;;;;;4977523;28;21903;-66
2024/01/24 01:22:21;;;;;;;16.77;3.70;;;;;;;;;;4977868;28;20050;-66
2024/01/24 01:24:47;;;;;;;20.95;4.88;;;;;;;;;;4978958;28;21094;-66
2024/01/24 01:27:13;;;;;;;23.58;3.58;;;;;;;;;;4977600;28;20069;-66
2024/01/24 01:29:39;;;;;;;13.93;2.75;;;;;;;;;;4979108;28;20064;-66
2024/01/24 01:32:06;;;;;;;21.10;3.72;;;;;;;;;;4977819;28;20034;-66
2024/01/24 01:34:32;;;;;;;15.48;3.28;;;;;;;;;;4977148;28;20034;-66
2024/01/24 01:36:58;;;;;;;15.10;2.97;;;;;;;;;;4977855;28;20035;-66
2024/01/24 01:39:24;;;;;;;17.65;3.50;;;;;;;;;;4978870;28;20041;-66
2024/01/24 01:41:50;;;;;;;22.50;4.47;;;;;;;;;;4960454;28;20030;-67
2024/01/24 01:44:17;;;;;;;19.85;4.00;;;;;;;;;;4982223;28;20030;-67
2024/01/24 01:46:46;;;;;;;19.08;2.92;;;;;;;;;;4982491;28;20041;-66
2024/01/24 01:49:13;;;;;;;9.80;1.95;;;;;;;;;;4981858;28;20052;-67
2024/01/24 01:51:39;;;;;;;17.25;3.13;;;;;;;;;;4981945;28;20112;-67
2024/01/24 01:54:07;;;;;;;15.15;3.80;;;;;;;;;;4980683;28;20494;-67
2024/01/24 01:56:33;;;;;;;13.93;3.30;;;;;;;;;;4982067;28;20452;-67
2024/01/24 01:58:59;;;;;;;15.50;2.88;;;;;;;;;;4981317;28;20113;-66
2024/01/24 02:01:26;;;;;;;14.98;2.90;;;;;;;;;;4964644;28;20029;-66
2024/01/24 02:03:52;;;;;;;16.42;2.88;;;;;;;;;;4964321;28;20469;-67
2024/01/24 02:06:18;;;;;;;12.32;2.25;;;;;;;;;;4982531;28;20117;-67
2024/01/24 02:08:44;;;;;;;13.00;2.20;;;;;;;;;;4981099;28;20042;-67
2024/01/24 02:11:10;;;;;;;16.25;2.53;;;;;;;;;;4979902;28;20026;-67
2024/01/24 02:13:36;;;;;;;11.93;2.42;;;;;;;;;;4981789;28;20540;-67
2024/01/24 02:16:06;;;;;;;11.05;1.85;;;;;;;;;;4980733;28;21881;-67
2024/01/24 02:18:32;;;;;;;10.43;2.25;;;;;;;;;;4980598;28;20034;-67
2024/01/24 02:20:58;;;;;;;13.38;2.70;;;;;;;;;;4980645;28;20036;-67
2024/01/24 02:23:25;;;;;;;16.13;2.22;;;;;;;;;;4981698;28;20593;-67
2024/01/24 02:25:52;;;;;;;13.30;1.88;;;;;;;;;;4980801;28;20050;-67
2024/01/24 02:28:18;;;;;;;16.67;3.75;;;;;;;;;;4981397;28;20029;-67
2024/01/24 02:30:44;;;;;;;11.43;2.53;;;;;;;;;;4980222;28;20077;-67
2024/01/24 02:33:10;;;;;;;12.07;2.25;;;;;;;;;;4981152;28;20037;-67
2024/01/24 02:35:36;;;;;;;12.38;2.40;;;;;;;;;;4980011;28;20141;-67
2024/01/24 02:38:02;;;;;;;13.05;3.95;;;;;;;;;;4964948;28;20125;-67
2024/01/24 02:40:29;;;;;;;18.52;3.63;;;;;;;;;;4979288;28;21821;-67
2024/01/24 02:42:55;;;;;;;10.15;2.17;;;;;;;;;;4963055;28;21853;-67
2024/01/24 02:45:21;;;;;;;11.32;2.33;;;;;;;;;;4981142;28;20035;-67
2024/01/24 02:47:47;;;;;;;10.88;2.10;;;;;;;;;;4980613;28;20029;-67
2024/01/24 02:50:13;;;;;;;12.95;3.25;;;;;;;;;;4979365;28;20076;-67
2024/01/24 02:52:39;;;;;;;11.75;2.65;;;;;;;;;;4980413;28;20038;-67
2024/01/24 02:55:07;;;;;;;11.90;2.63;;;;;;;;;;4980205;28;20030;-67
2024/01/24 02:57:33;;;;;;;16.05;4.03;;;;;;;;;;4979489;28;20030;-67
2024/01/24 02:59:59;;;;;;;17.13;4.13;;;;;;;;;;4980229;28;20159;-67
2024/01/24 03:02:26;;;;;;;11.65;3.08;;;;;;;;;;4980903;28;20090;-67
2024/01/24 03:04:52;;;;;;;16.67;3.75;;;;;;;;;;4978642;28;20065;-67
2024/01/24 03:07:18;;;;;;;18.08;3.22;;;;;;;;;;4980547;28;21247;-68
2024/01/24 03:09:44;;;;;;;20.00;3.60;;;;;;;;;;4979962;28;20525;-67
2024/01/24 03:12:12;;;;;;;28.65;4.22;;;;;;;;;;4979990;28;20026;-67
2024/01/24 03:14:38;;;;;;;15.82;2.55;;;;;;;;;;4979480;28;20053;-67
2024/01/24 03:17:04;;;;;;;16.15;3.15;;;;;;;;;;4980790;28;20085;-67
2024/01/24 03:19:30;;;;;;;15.13;2.75;;;;;;;;;;4965261;28;20409;-67
2024/01/24 03:21:57;;;;;;;15.93;3.92;;;;;;;;;;4980060;28;20655;-68
2024/01/24 03:24:23;;;;;;;23.23;3.90;;;;;;;;;;4979862;28;20054;-67
2024/01/24 03:26:49;;;;;;;19.00;3.55;;;;;;;;;;4980123;28;20085;-67
2024/01/24 03:29:15;;;;;;;19.63;3.47;;;;;;;;;;4978956;28;20022;-67
2024/01/24 03:31:44;;;;;;;23.08;4.13;;;;;;;;;;4979758;28;20645;-67
2024/01/24 03:34:13;;;;;;;20.38;3.95;;;;;;;;;;4979156;28;20037;-67
2024/01/24 03:36:39;;;;;;;17.73;4.28;;;;;;;;;;4980465;28;20611;-67
2024/01/24 03:39:09;;;;;;;26.55;4.55;;;;;;;;;;4979774;28;20042;-67
2024/01/24 03:41:36;;;;;;;20.75;3.55;;;;;;;;;;4978550;28;20034;-67
2024/01/24 03:44:02;;;;;;;18.20;3.85;;;;;;;;;;4978941;28;20045;-67
2024/01/24 03:46:28;;;;;;;26.02;4.60;;;;;;;;;;4980228;28;20093;-67
2024/01/24 03:48:54;;;;;;;22.67;4.10;;;;;;;;;;4978422;28;20639;-67
2024/01/24 03:51:21;;;;;;;19.08;3.97;;;;;;;;;;4980458;28;20648;-67
2024/01/24 03:53:47;;;;;;;22.50;4.00;;;;;;;;;;4979623;28;20031;-67
2024/01/24 03:56:13;;;;;;;18.35;3.30;;;;;;;;;;4980387;28;20041;-67
2024/01/24 03:58:39;;;;;;;18.30;3.67;;;;;;;;;;4978772;28;20030;-67
2024/01/24 04:01:06;;;;;;;16.63;3.75;;;;;;;;;;4979316;28;20042;-67
2024/01/24 04:03:32;;;;;;;19.83;2.97;;;;;;;;;;4979915;28;20030;-67
2024/01/24 04:05:58;;;;;;;21.48;3.90;;;;;;;;;;4978251;28;20038;-67
2024/01/24 04:08:24;;;;;;;21.23;4.82;;;;;;;;;;4979986;28;20742;-67
2024/01/24 04:10:50;;;;;;;25.80;5.28;;;;;;;;;;4977569;28;20038;-67
2024/01/24 04:13:16;;;;;;;23.20;4.63;;;;;;;;;;4978821;28;20473;-67
2024/01/24 04:15:42;;;;;;;24.65;4.90;;;;;;;;;;4978431;28;20888;-67
2024/01/24 04:18:09;;;;;;;21.00;4.22;;;;;;;;;;4979310;28;20505;-67
2024/01/24 04:20:36;;;;;;;24.02;5.55;;;;;;;;;;4979439;28;20173;-67
2024/01/24 04:23:02;;;;;;;18.90;4.70;;;;;;;;;;4980036;28;20121;-67
2024/01/24 04:25:28;;;;;;;21.73;3.95;;;;;;;;;;4978174;28;20065;-67
2024/01/24 04:27:54;;;;;;;24.38;4.57;;;;;;;;;;4979018;28;20029;-67
2024/01/24 04:30:20;;;;;;;18.30;4.40;;;;;;;;;;4978425;28;20030;-67
2024/01/24 04:32:46;;;;;;;24.05;5.65;;;;;;;;;;4979513;28;20034;-67
2024/01/24 04:35:12;;;;;;;25.55;5.07;;;;;;;;;;4978761;28;20035;-67
2024/01/24 04:37:38;;;;;;;27.20;5.60;;;;;;;;;;4963082;28;20045;-67
2024/01/24 04:40:05;;;;;;;38.83;6.65;;;;;;;;;;4978838;28;20064;-67
2024/01/24 04:42:31;;;;;;;37.13;6.28;;;;;;;;;;4978004;28;20042;-66
2024/01/24 04:44:57;;;;;;;26.10;4.93;;;;;;;;;;4978810;28;20584;-67
2024/01/24 04:47:23;;;;;;;30.73;6.20;;;;;;;;;;4977749;28;20663;-67
2024/01/24 04:49:49;;;;;;;28.42;6.57;;;;;;;;;;4979848;28;20026;-67
2024/01/24 04:52:15;;;;;;;24.73;5.15;;;;;;;;;;4977350;28;20038;-67
2024/01/24 04:54:44;;;;;;;24.55;5.35;;;;;;;;;;4979256;28;20045;-67
2024/01/24 04:57:10;;;;;;;24.98;5.45;;;;;;;;;;4977241;28;20109;-67
2024/01/24 04:59:36;;;;;;;32.53;5.07;;;;;;;;;;4978730;28;20030;-67
2024/01/24 05:02:05;;;;;;;24.42;5.85;;;;;;;;;;4977709;28;20025;-67
2024/01/24 05:04:32;;;;;;;27.75;5.95;;;;;;;;;;4978579;28;20026;-67
2024/01/24 05:06:58;;;;;;;28.20;6.05;;;;;;;;;;4977322;28;20030;-67
2024/01/24 05:09:24;;;;;;;37.00;7.07;;;;;;;;;;4977701;28;20117;-67
2024/01/24 05:11:50;;;;;;;30.65;5.75;;;;;;;;;;4978658;28;20061;-67
2024/01/24 05:14:16;;;;;;;31.77;6.85;;;;;;;;;;4978001;28;20062;-67
2024/01/24 05:16:42;;;;;;;33.25;5.90;;;;;;;;;;4977490;28;20049;-64
2024/01/24 05:19:08;;;;;;;33.38;6.35;;;;;;;;;;4977474;28;20699;-65
2024/01/24 05:21:41;;;;;;;36.70;6.75;;;;;;;;;;4978569;28;20033;-65
2024/01/24 05:24:08;;;;;;;32.17;6.85;;;;;;;;;;4977914;28;20046;-65
2024/01/24 05:26:35;;;;;;;33.33;5.30;;;;;;;;;;4977711;28;20131;-65
2024/01/24 05:29:01;;;;;;;41.90;8.60;;;;;;;;;;4978078;28;20030;-65
2024/01/24 05:31:28;;;;;;;28.35;6.43;;;;;;;;;;4978774;28;20120;-65
2024/01/24 05:33:55;;;;;;;27.08;6.15;;;;;;;;;;4976236;28;21384;-65
2024/01/24 05:36:22;;;;;;;36.83;6.60;;;;;;;;;;4978051;28;20091;-65
2024/01/24 05:38:48;;;;;;;32.78;6.07;;;;;;;;;;4977174;28;20044;-65
2024/01/24 05:41:14;;;;;;;38.72;8.35;;;;;;;;;;4977079;28;20617;-65
2024/01/24 05:43:40;;;;;;;40.17;7.43;;;;;;;;;;4976727;28;20038;-65
2024/01/24 05:46:06;;;;;;;36.63;6.68;;;;;;;;;;4978616;28;20034;-65
2024/01/24 05:48:32;;;;;;;27.10;5.70;;;;;;;;;;4976927;28;20030;-65
2024/01/24 05:50:58;;;;;;;38.10;7.38;;;;;;;;;;4979196;28;20026;-65
2024/01/24 05:53:24;;;;;;;33.35;6.85;;;;;;;;;;4977744;28;20521;-65
2024/01/24 05:55:50;;;;;;;31.60;6.60;;;;;;;;;;4978387;28;20743;-65
2024/01/24 05:58:16;;;;;;;30.33;6.68;;;;;;;;;;4978225;28;20694;-65
2024/01/24 06:00:42;;;;;;;36.95;7.95;;;;;;;;;;4976120;28;20537;-65
2024/01/24 06:03:08;;;;;;;35.00;6.55;;;;;;;;;;4977731;28;20545;-65
2024/01/24 06:05:34;;;;;;;34.60;6.93;;;;;;;;;;4976395;28;20030;-65
2024/01/24 06:08:02;;;;;;;38.67;7.00;;;;;;;;;;4975469;28;20957;-65
2024/01/24 06:10:28;;;;;;;35.35;7.43;;;;;;;;;;4975428;28;20531;-65
2024/01/24 06:12:54;;;;;;;34.38;7.45;;;;;;;;;;4976852;28;20038;-65
2024/01/24 06:15:21;;;;;;;32.50;6.65;;;;;;;;;;4974419;28;20042;-65
2024/01/24 06:17:48;;;;;;;30.13;6.40;;;;;;;;;;4978293;28;20038;-66
2024/01/24 06:20:15;;;;;;;32.95;7.45;;;;;;;;;;4975126;28;20042;-65
2024/01/24 06:22:41;;;;;;;31.15;7.50;;;;;;;;;;4978289;28;20034;-65
2024/01/24 06:25:08;;;;;;;31.27;7.10;;;;;;;;;;4976939;28;20061;-66
2024/01/24 06:27:35;;;;;;;34.25;7.68;;;;;;;;;;4977566;28;20069;-66
2024/01/24 06:30:01;;;;;;;39.22;8.07;;;;;;;;;;4963813;28;20026;-65
2024/01/24 06:32:27;;;;;;;27.98;6.25;;;;;;;;;;4979801;28;20034;-66
2024/01/24 06:34:53;;;;;;;33.50;7.40;;;;;;;;;;4980641;28;20042;-65
2024/01/24 06:37:19;;;;;;;30.17;6.85;;;;;;;;;;4963133;28;20039;-65
2024/01/24 06:39:45;;;;;;;32.72;7.35;;;;;;;;;;4962868;28;20774;-66
2024/01/24 06:42:11;;;;;;;31.70;7.47;;;;;;;;;;4961871;28;20049;-65
2024/01/24 06:44:37;;;;;;;35.63;7.53;;;;;;;;;;4981330;28;20853;-65
2024/01/24 06:47:03;;;;;;;36.33;7.00;;;;;;;;;;4979966;28;20038;-66
2024/01/24 06:49:29;;;;;;;40.88;8.05;;;;;;;;;;4981532;28;20037;-65
2024/01/24 06:51:56;;;;;;;33.45;6.13;;;;;;;;;;4979649;28;20038;-66
2024/01/24 06:54:22;;;;;;;35.25;7.05;;;;;;;;;;4981063;28;20026;-66
2024/01/24 06:56:48;;;;;;;32.88;5.93;;;;;;;;;;4979747;28;20069;-65
2024/01/24 06:59:14;;;;;;;36.75;6.57;;;;;;;;;;4980027;28;20093;-66
2024/01/24 07:01:40;;;;;;;36.10;7.30;;;;;;;;;;4979674;28;20045;-66
2024/01/24 07:04:06;;;;;;;34.17;7.57;;;;;;;;;;4981710;28;20026;-66
2024/01/24 07:06:32;;;;;;;32.20;6.20;;;;;;;;;;4980086;28;20041;-66
2024/01/24 07:08:58;;;;;;;34.80;7.45;;;;;;;;;;4979928;28;20049;-66
2024/01/24 07:11:24;;;;;;;29.75;5.82;;;;;;;;;;4979177;28;20034;-66
2024/01/24 07:13:50;;;;;;;30.08;7.65;;;;;;;;;;4980913;28;20039;-66
2024/01/24 07:16:16;;;;;;;35.90;6.85;;;;;;;;;;4979697;28;20046;-66
2024/01/24 07:18:42;;;;;;;34.35;7.38;;;;;;;;;;4981224;28;20037;-66
2024/01/24 07:21:10;;;;;;;33.90;6.60;;;;;;;;;;4980733;28;20032;-66
2024/01/24 07:23:36;;;;;;;34.97;7.32;;;;;;;;;;4980386;28;20034;-66
2024/01/24 07:26:02;;;;;;;39.65;8.02;;;;;;;;;;4980266;28;20046;-66
2024/01/24 07:28:29;;;;;;;31.40;6.50;;;;;;;;;;4978461;28;20030;-65
2024/01/24 07:30:55;;;;;;;28.48;5.82;;;;;;;;;;4980214;28;20034;-66
2024/01/24 07:33:22;;;;;;;32.45;6.00;;;;;;;;;;4978849;28;20033;-66
2024/01/24 07:35:48;;;;;;;34.72;7.25;;;;;;;;;;4981391;28;20029;-66
2024/01/24 07:38:14;;;;;;;31.17;6.88;;;;;;;;;;4979628;28;20046;-66
2024/01/24 07:40:40;;;;;;;32.45;6.75;;;;;;;;;;4978946;28;20041;-66
2024/01/24 07:43:06;;;;;;;31.02;6.97;;;;;;;;;;4977963;28;20034;-66
2024/01/24 07:45:32;;;;;;;31.17;6.15;;;;;;;;;;4977217;28;20034;-66
2024/01/24 07:47:58;;;;;;;31.90;6.07;;;;;;;;;;4980228;28;20038;-66
2024/01/24 07:50:27;;;;;;;33.90;6.35;;;;;;;;;;4979386;28;20031;-65
2024/01/24 07:52:53;;;;;;;33.15;6.72;;;;;;;;;;4980144;28;20031;-66
2024/01/24 07:55:19;;;;;;;33.20;7.50;;;;;;;;;;4979413;28;20117;-66
2024/01/24 07:57:45;;;;;;;32.03;7.38;;;;;;;;;;4979963;28;20038;-65
2024/01/24 08:00:16;;;;;;;40.20;8.35;;;;;;;;;;4978167;28;20471;-66
2024/01/24 08:02:45;;;;;;;30.45;6.40;;;;;;;;;;4979749;28;20033;-65
2024/01/24 08:05:14;;;;;;;29.48;7.05;;;;;;;;;;4976799;28;20049;-66
2024/01/24 08:07:44;;;;;;;33.80;5.93;;;;;;;;;;4980175;28;20064;-66
2024/01/24 08:10:10;;;;;;;31.50;7.30;;;;;;;;;;4978607;28;20026;-66
2024/01/24 08:12:37;;;;;;;38.28;7.88;;;;;;;;;;4960667;28;22054;-66
2024/01/24 08:15:05;;;;;;;35.53;6.80;;;;;;;;;;4959008;28;20154;-66
2024/01/24 08:17:32;;;;;;;29.08;6.95;;;;;;;;;;4969489;28;20032;-66
2024/01/24 08:19:58;;;;;;;33.20;7.18;;;;;;;;;;4970103;28;20120;-66
2024/01/24 08:22:24;;;;;;;40.78;8.55;;;;;;;;;;4966035;28;20049;-66
2024/01/24 08:24:50;;;;;;;34.60;7.80;;;;;;;;;;4968597;28;20161;-66
2024/01/24 08:27:17;;;;;;;33.90;8.55;;;;;;;;;;4949226;28;20038;-66
2024/01/24 08:29:43;;;;;;;37.63;7.85;;;;;;;;;;4967452;28;20107;-66
2024/01/24 08:32:10;;;;;;;32.58;7.22;;;;;;;;;;4964101;28;21881;-66
2024/01/24 08:34:36;;;;;;;30.52;7.10;;;;;;;;;;4970465;28;20034;-66
2024/01/24 08:37:02;;;;;;;34.83;7.53;;;;;;;;;;4968269;28;20033;-66
2024/01/24 08:39:28;;;;;;;30.85;6.32;;;;;;;;;;4967989;28;20689;-66
2024/01/24 08:41:54;;;;;;;37.38;7.28;;;;;;;;;;4966224;28;21809;-66
2024/01/24 08:44:20;;;;;;;36.65;7.70;;;;;;;;;;4968813;28;21317;-66
2024/01/24 08:46:48;;;;;;;37.47;7.40;;;;;;;;;;4965320;28;20046;-66
2024/01/24 08:49:15;;;;;;;29.10;6.28;;;;;;;;;;4969783;28;20076;-66
2024/01/24 08:51:41;;;;;;;31.00;6.60;;;;;;;;;;4969318;28;20043;-66
2024/01/24 08:54:08;;;;;;;32.22;8.35;;;;;;;;;;4978864;28;20042;-66
2024/01/24 08:56:34;;;;;;;30.10;5.50;;;;;;;;;;4977781;28;20109;-66
2024/01/24 08:59:00;;;;;;;38.35;7.43;;;;;;;;;;4975829;28;20046;-66
2024/01/24 09:01:27;;;;;;;31.83;6.45;;;;;;;;;;4977483;28;20044;-66
2024/01/24 09:03:53;;;;;;;36.92;7.00;;;;;;;;;;4978308;28;20121;-66
2024/01/24 09:06:21;;;;;;;29.67;7.25;;;;;;;;;;4978109;28;20122;-66
2024/01/24 09:08:51;;;;;;;28.35;6.85;;;;;;;;;;4978959;28;20030;-66
2024/01/24 09:11:18;;;;;;;30.92;6.88;;;;;;;;;;4977450;28;20042;-66
2024/01/24 09:13:44;;;;;;;28.40;5.93;;;;;;;;;;4978526;28;20120;-66
2024/01/24 09:16:10;;;;;;;32.10;6.47;;;;;;;;;;4978195;28;20046;-66
2024/01/24 09:18:36;;;;;;;28.33;6.28;;;;;;;;;;4977104;28;20034;-66
2024/01/24 09:21:03;;;;;;;36.15;6.68;;;;;;;;;;4978644;28;21127;-66
2024/01/24 09:23:30;;;;;;;36.08;8.02;;;;;;;;;;4977262;28;20038;-66
2024/01/24 09:25:56;;;;;;;36.88;7.07;;;;;;;;;;4978581;28;20046;-66
2024/01/24 09:28:22;;;;;;;38.97;7.85;;;;;;;;;;4977075;28;20029;-66
2024/01/24 09:30:48;;;;;;;34.95;7.47;;;;;;;;;;4978899;28;20029;-66
2024/01/24 09:33:14;;;;;;;35.28;8.45;;;;;;;;;;4977332;28;20738;-66
2024/01/24 09:35:40;;;;;;;33.60;7.75;;;;;;;;;;4977657;28;20026;-66
2024/01/24 09:38:06;;;;;;;28.67;6.05;;;;;;;;;;4977252;28;21428;-66
2024/01/24 09:40:32;;;;;;;29.13;7.82;;;;;;;;;;4977498;28;20033;-66
2024/01/24 09:43:02;;;;;;;30.48;6.50;;;;;;;;;;4977498;28;20027;-66
2024/01/24 09:45:28;;;;;;;32.70;7.95;;;;;;;;;;4977155;28;20121;-66
2024/01/24 09:47:58;;;;;;;34.00;6.82;;;;;;;;;;4978011;28;20161;-66
2024/01/24 09:50:25;;;;;;;34.35;8.07;;;;;;;;;;4977608;28;20046;-66
2024/01/24 09:52:51;;;;;;;38.60;7.10;;;;;;;;;;4977975;28;20030;-66
2024/01/24 09:55:18;;;;;;;30.08;6.28;;;;;;;;;;4976699;28;20049;-66
2024/01/24 09:57:45;;;;;;;30.08;6.70;;;;;;;;;;4978189;28;20030;-66
2024/01/24 10:00:14;;;;;;;36.33;7.28;;;;;;;;;;4976784;28;20030;-66
2024/01/24 10:02:41;;;;;;;29.50;7.00;;;;;;;;;;4979096;28;20116;-66
2024/01/24 10:05:11;;;;;;;34.42;7.65;;;;;;;;;;4980887;28;20038;-66
2024/01/24 10:07:37;;;;;;;32.97;7.03;;;;;;;;;;4981984;28;20601;-66
2024/01/24 10:10:09;;;;;;;24.85;5.22;;;;;;;;;;4980908;28;20035;-66
2024/01/24 10:12:35;;;;;;;29.90;6.95;;;;;;;;;;4982320;28;20502;-66
2024/01/24 10:15:01;;;;;;;40.63;9.82;;;;;;;;;;4980472;28;20064;-66
2024/01/24 10:17:31;;;;;;;29.52;6.38;;;;;;;;;;4981653;28;20041;-66
2024/01/24 10:19:57;;;;;;;27.75;6.93;;;;;;;;;;4980978;28;20027;-66
2024/01/24 10:22:23;;;;;;;35.38;7.38;;;;;;;;;;4981049;28;20030;-66
2024/01/24 10:24:49;;;;;;;29.55;6.93;;;;;;;;;;4963866;28;20077;-66
2024/01/24 10:27:15;;;;;;;31.40;6.63;;;;;;;;;;4979009;28;20112;-66
2024/01/24 10:29:44;;;;;;;40.25;8.35;;;;;;;;;;4981297;28;20569;-66
2024/01/24 10:32:10;;;;;;;30.48;6.85;;;;;;;;;;4978684;28;20046;-66
2024/01/24 10:34:37;;;;;;;34.35;7.88;;;;;;;;;;4979975;28;20030;-66
2024/01/24 10:37:04;;;;;;;29.45;6.68;;;;;;;;;;4978868;28;20088;-66
2024/01/24 10:39:33;;;;;;;40.78;7.82;;;;;;;;;;4980210;28;20044;-66
2024/01/24 10:42:02;;;;;;;28.85;6.35;;;;;;;;;;4975367;28;20471;-66
2024/01/24 10:44:31;;;;;;;31.48;7.25;;;;;;;;;;4979421;28;20036;-66
2024/01/24 10:46:57;;;;;;;27.58;5.68;;;;;;;;;;4977745;28;20030;-66
2024/01/24 10:49:24;;;;;;;28.40;6.78;;;;;;;;;;4979050;28;20108;-66
2024/01/24 10:51:51;;;;;;;28.23;6.25;;;;;;;;;;4978469;28;20044;-66
2024/01/24 10:54:17;;;;;;;27.65;5.97;;;;;;;;;;4977857;28;20544;-66
2024/01/24 10:56:49;;;;;;;24.95;5.80;;;;;;;;;;4979978;28;20045;-66
2024/01/24 10:59:16;;;;;;;29.48;6.40;;;;;;;;;;4979224;28;20026;-66
2024/01/24 11:01:42;;;;;;;37.30;8.35;;;;;;;;;;4979874;28;20367;-66
2024/01/24 11:04:09;;;;;;;35.47;9.10;;;;;;;;;;4978916;28;20837;-66
2024/01/24 11:06:36;;;;;;;30.00;6.90;;;;;;;;;;4980925;28;20025;-66
2024/01/24 11:09:02;;;;;;;31.00;7.13;;;;;;;;;;4978389;28;20364;-66
2024/01/24 11:11:31;;;;;;;30.27;6.88;;;;;;;;;;4980569;28;20030;-66
2024/01/24 11:13:59;;;;;;;24.40;6.20;;;;;;;;;;4977520;28;20137;-66
2024/01/24 11:16:32;;;;;;;34.90;6.65;;;;;;;;;;4977824;28;20085;-66
2024/01/24 11:19:00;;;;;;;30.23;6.05;;;;;;;;;;4978917;28;20065;-66
2024/01/24 11:21:28;;;;;;;30.25;7.20;;;;;;;;;;4980054;28;20133;-66
2024/01/24 11:23:54;;;;;;;33.80;7.35;;;;;;;;;;4970760;28;20506;-66
2024/01/24 11:26:20;;;;;;;38.83;7.93;;;;;;;;;;4970775;28;20092;-66
2024/01/24 11:28:47;;;;;;;24.48;6.47;;;;;;;;;;4971366;28;20031;-66
2024/01/24 11:31:14;;;;;;;33.20;6.07;;;;;;;;;;4971606;28;20025;-66
2024/01/24 11:34:09;;;;;;;31.50;7.05;;;;;;;;;;4971887;28;20030;-66
2024/01/24 11:36:43;;;;;;;31.27;6.00;;;;;;;;;;4970039;28;20029;-66
2024/01/24 11:39:28;;;;;;;32.85;6.10;;;;;;;;;;4955420;28;20551;-66
2024/01/24 11:41:54;;;;;;;36.20;7.85;;;;;;;;;;4971882;28;20045;-66
2024/01/24 11:44:20;;;;;;;22.65;4.85;;;;;;;;;;4969747;28;20656;-66
2024/01/24 11:46:47;;;;;;;29.65;6.10;;;;;;;;;;4955985;28;20097;-66
2024/01/24 11:49:13;;;;;;;31.55;7.45;;;;;;;;;;4970044;28;20081;-66
2024/01/24 11:51:39;;;;;;;34.78;7.32;;;;;;;;;;4955181;28;20030;-66
2024/01/24 11:54:05;;;;;;;26.23;5.93;;;;;;;;;;4969858;28;20043;-66
2024/01/24 11:56:34;;;;;;;34.10;6.82;;;;;;;;;;4955509;28;20517;-66
2024/01/24 11:59:00;;;;;;;33.22;6.55;;;;;;;;;;4970753;28;21668;-66
2024/01/24 12:01:26;;;;;;;28.80;6.63;;;;;;;;;;4960535;28;20547;-66
2024/01/24 12:03:52;;;;;;;23.27;6.15;;;;;;;;;;4967804;28;20110;-66
2024/01/24 12:06:19;;;;;;;27.10;6.00;;;;;;;;;;4967013;28;20030;-66
2024/01/24 12:08:45;;;;;;;30.35;6.75;;;;;;;;;;4968998;28;20026;-66
2024/01/24 12:11:11;;;;;;;30.15;6.00;;;;;;;;;;4968392;28;20088;-66
2024/01/24 12:13:37;;;;;;;28.63;5.20;;;;;;;;;;4969173;28;20040;-66
2024/01/24 12:16:04;;;;;;;28.73;5.55;;;;;;;;;;4950201;28;20039;-66
2024/01/24 12:18:31;;;;;;;23.45;5.25;;;;;;;;;;4968391;28;20060;-66
2024/01/24 12:20:57;;;;;;;24.75;5.60;;;;;;;;;;4968100;28;20034;-66
2024/01/24 12:23:23;;;;;;;33.00;6.78;;;;;;;;;;4969041;28;20047;-66
2024/01/24 12:25:49;;;;;;;31.92;6.93;;;;;;;;;;4967460;28;20182;-66
2024/01/24 12:28:15;;;;;;;33.15;5.60;;;;;;;;;;4963671;28;20131;-66
2024/01/24 12:30:45;;;;;;;33.67;6.07;;;;;;;;;;4964765;28;20041;-66
2024/01/24 12:33:11;;;;;;;23.52;5.50;;;;;;;;;;4967245;28;20036;-66
2024/01/24 12:35:37;;;;;;;30.15;6.43;;;;;;;;;;4951809;28;20573;-66
2024/01/24 12:38:04;;;;;;;28.58;5.88;;;;;;;;;;4952439;28;20431;-66
2024/01/24 12:40:31;;;;;;;36.72;7.28;;;;;;;;;;4968049;28;20030;-67
2024/01/24 12:42:58;;;;;;;25.70;5.65;;;;;;;;;;4967106;28;20121;-66
2024/01/24 12:45:26;;;;;;;31.15;7.05;;;;;;;;;;4966602;28;20459;-66
2024/01/24 12:47:53;;;;;;;28.63;6.68;;;;;;;;;;4967713;28;20065;-66
2024/01/24 12:50:19;;;;;;;32.42;6.15;;;;;;;;;;4967291;28;20110;-66
2024/01/24 12:52:45;;;;;;;28.73;6.10;;;;;;;;;;4969019;28;20030;-66
2024/01/24 12:55:11;;;;;;;29.08;6.63;;;;;;;;;;4966220;28;20025;-66
2024/01/24 12:57:37;;;;;;;26.98;6.32;;;;;;;;;;4968822;28;20030;-66
2024/01/24 13:00:05;;;;;;;28.80;5.70;;;;;;;;;;4967169;28;20033;-66
2024/01/24 13:02:31;;;;;;;32.47;7.82;;;;;;;;;;4968139;28;20030;-66
2024/01/24 13:04:57;;;;;;;29.08;6.55;;;;;;;;;;4950753;28;20231;-66
2024/01/24 13:07:23;;;;;;;26.00;5.97;;;;;;;;;;4952190;28;20034;-66
2024/01/24 13:09:49;;;;;;;29.38;6.38;;;;;;;;;;4967162;28;21560;-66
2024/01/24 13:12:16;;;;;;;25.02;5.95;;;;;;;;;;4967922;28;20040;-66
2024/01/24 13:14:42;;;;;;;32.53;5.63;;;;;;;;;;4966122;28;21151;-66
2024/01/24 13:17:08;;;;;;;29.00;7.15;;;;;;;;;;4965188;28;20070;-66
2024/01/24 13:19:34;;;;;;;32.35;6.32;;;;;;;;;;4965687;28;20034;-66
2024/01/24 13:22:01;;;;;;;29.17;6.35;;;;;;;;;;4967985;28;20034;-66
2024/01/24 13:24:27;;;;;;;32.25;6.70;;;;;;;;;;4968612;28;20062;-66
2024/01/24 13:26:56;;;;;;;26.88;6.13;;;;;;;;;;4969149;28;20113;-66
2024/01/24 13:29:23;;;;;;;24.20;5.95;;;;;;;;;;4969709;28;20029;-66
2024/01/24 13:31:49;;;;;;;31.67;6.75;;;;;;;;;;4969914;28;20030;-66
2024/01/24 13:34:15;;;;;;;35.83;6.70;;;;;;;;;;4971073;28;20034;-66
2024/01/24 13:36:43;;;;;;;30.65;6.18;;;;;;;;;;4968201;28;20069;-66
2024/01/24 13:39:14;;;;;;;32.00;6.45;;;;;;;;;;4968596;28;21027;-66
2024/01/24 13:41:43;;;;;;;31.77;6.20;;;;;;;;;;4952115;28;21155;-66
2024/01/24 13:44:10;;;;;;;38.10;8.40;;;;;;;;;;4969492;28;20054;-66
2024/01/24 13:46:36;;;;;;;29.95;6.78;;;;;;;;;;4968838;28;20037;-66
2024/01/24 13:49:03;;;;;;;28.88;6.80;;;;;;;;;;4969178;28;20080;-67
2024/01/24 13:51:29;;;;;;;27.73;6.50;;;;;;;;;;4967159;28;20026;-66
2024/01/24 13:53:55;;;;;;;35.30;7.20;;;;;;;;;;4968998;28;20026;-66
2024/01/24 13:56:21;;;;;;;33.35;7.00;;;;;;;;;;4966243;28;20049;-66
2024/01/24 13:58:47;;;;;;;32.10;6.53;;;;;;;;;;4945139;28;20046;-66
2024/01/24 14:01:14;;;;;;;34.20;7.03;;;;;;;;;;4951781;28;20092;-66
2024/01/24 14:03:40;;;;;;;27.63;5.50;;;;;;;;;;4969048;28;20396;-66
2024/01/24 14:06:06;;;;;;;30.40;7.45;;;;;;;;;;4966559;28;21940;-66
2024/01/24 14:08:33;;;;;;;26.73;6.00;;;;;;;;;;4970537;28;20121;-66
2024/01/24 14:10:59;;;;;;;31.88;6.97;;;;;;;;;;4968316;28;20037;-66
2024/01/24 14:13:25;;;;;;;30.55;6.05;;;;;;;;;;4969175;28;20034;-66
2024/01/24 14:15:51;;;;;;;33.35;7.38;;;;;;;;;;4968383;28;20119;-66
2024/01/24 14:18:17;;;;;;;31.67;6.22;;;;;;;;;;4952432;28;21069;-66
2024/01/24 14:20:43;;;;;;;27.67;7.20;;;;;;;;;;4968682;28;20037;-66
2024/01/24 14:23:10;;;;;;;36.75;6.22;;;;;;;;;;4969351;28;20121;-66
2024/01/24 14:25:36;;;;;;;34.22;6.13;;;;;;;;;;4971825;28;20046;-66
2024/01/24 14:28:02;;;;;;;31.65;6.53;;;;;;;;;;4972473;28;20030;-66